KINT

Smith Reynolds Airport

Winston Salem, North Carolina, USA
METAR KINT 210354Z AUTO 00000KT 10SM CLR 23/22 A3007 RMK AO2 RAE22 SLP173 P0001 T02280222
Observed Flight Rules
Aug-21 @ 03:54 UTC (16 minutes ago) Visual Flight Rules
Visibility Clouds
10 miles
  • Clear skies
Temperatures Readings Precipitation
Current 23°C / 73°F
Dewpoint 22°C / 72°F
Humidity 94%
Altimeter 30.07" Hg
Pressure 1017.3 hPa
Elevation 291
Current Rain 0.01
METAR KINT 210354Z AUTO 00000KT 10SM CLR 23/22 A3007 RMK AO2 RAE22 SLP173 P0001 T02280222
Observed Flight Rules
Aug-21 @ 03:54 UTC
(16 minutes ago)
VFR
Clouds
  • Clear skies
Temperature Dewpoint
23°C / 73°F 22°C / 72°F
Humidity Altimeter Pressure
94% 30.07" Hg 1017.3 hPa
Current Rain
0.01